Terminal Aerodrome Forecast
Issued by NWS Wilmington, OH

Current Version | Previous Version | Text Only | Print | Product List | Glossary Off
Versions: 1 2 3 4 5 6 7 8 9 10 11 12 13 14 15 16

000
FTUS41 KILN 241100
TAFDAY
TAF
KDAY 241131Z 2412/2512 20006KT P6SM SCT250
     FM241500 22011KT P6SM SCT250
     FM241800 23016G24KT P6SM SCT025
     FM250000 25010KT P6SM OVC025=

USA.gov is the U.S. government's official web portal to all federal, state and local government web resources and services.